createdAt,value
2022-10-11T00:02:18.213Z,8.05
2022-10-11T00:04:50.158Z,8.01
2022-10-11T00:07:20.935Z,8.17
2022-10-11T00:09:50.987Z,8.17
2022-10-11T00:12:20.786Z,8.03
2022-10-11T00:14:50.808Z,8.03
2022-10-11T00:17:20.587Z,7.96
2022-10-11T00:19:50.607Z,7.96
2022-10-11T00:22:20.743Z,7.97
2022-10-11T00:24:50.507Z,7.95
2022-10-11T00:27:20.647Z,7.97
2022-10-11T00:29:50.693Z,8.01
2022-10-11T00:32:20.663Z,7.92
2022-10-11T00:34:50.874Z,7.92
2022-10-11T00:37:21.448Z,7.87
2022-10-11T00:39:51.913Z,7.92
2022-10-11T00:42:21.738Z,7.93
2022-10-11T00:44:52.252Z,7.84
2022-10-11T00:47:24.451Z,7.73
2022-10-11T00:49:57.547Z,7.76
2022-10-11T00:52:32.779Z,7.77
2022-10-11T00:55:05.622Z,7.77
2022-10-11T00:57:38.017Z,7.71
2022-10-11T01:00:10.315Z,7.63
2022-10-11T01:02:41.038Z,7.69
2022-10-11T01:05:29.205Z,7.67
2022-10-11T01:07:47.955Z,7.66
2022-10-11T01:10:18.303Z,7.50
2022-10-11T01:12:56.576Z,7.50
2022-10-11T01:15:29.328Z,7.51
2022-10-11T01:18:08.035Z,7.53
2022-10-11T01:21:01.350Z,7.59
2022-10-11T01:23:40.321Z,7.55
2022-10-11T01:26:17.304Z,7.46
2022-10-11T01:29:04.217Z,7.47
2022-10-11T01:31:48.535Z,7.55
2022-10-11T01:34:32.628Z,7.56
2022-10-11T01:37:21.935Z,7.49
2022-10-11T01:39:54.708Z,7.29
2022-10-11T01:42:26.601Z,7.34
2022-10-11T01:44:58.320Z,7.32
2022-10-11T01:47:28.048Z,7.40
2022-10-11T01:50:00.153Z,7.30
2022-10-11T01:52:33.244Z,7.27
2022-10-11T01:55:20.752Z,7.21
2022-10-11T01:58:10.098Z,7.20
2022-10-11T02:00:54.749Z,7.19
2022-10-11T02:03:49.989Z,7.21
2022-10-11T02:06:31.355Z,7.16
2022-10-11T02:09:29.804Z,7.13
2022-10-11T02:12:02.587Z,7.15
2022-10-11T02:14:35.393Z,7.13
2022-10-11T02:17:13.765Z,7.09
2022-10-11T02:19:52.237Z,7.05
2022-10-11T02:22:27.410Z,7.04
2022-10-11T02:25:00.623Z,6.83
2022-10-11T02:27:33.559Z,6.94
2022-10-11T02:30:05.758Z,6.94
2022-10-11T02:32:38.211Z,6.95
2022-10-11T02:35:09.057Z,6.88
2022-10-11T02:37:47.682Z,6.88
2022-10-11T02:40:23.888Z,6.88
2022-10-11T02:43:02.223Z,6.91
2022-10-11T02:45:40.576Z,6.88
2022-10-11T02:48:12.919Z,6.81
2022-10-11T02:50:43.330Z,6.68
2022-10-11T02:53:13.390Z,6.66
2022-10-11T02:55:43.128Z,6.71
2022-10-11T02:58:13.803Z,6.77
2022-10-11T03:00:43.793Z,6.72
2022-10-11T03:03:13.598Z,6.73
2022-10-11T03:05:43.877Z,6.71
2022-10-11T03:08:16.253Z,6.72
2022-10-11T03:10:46.014Z,6.72
2022-10-11T03:13:18.253Z,6.80
2022-10-11T03:16:03.289Z,6.74
2022-10-11T03:18:27.557Z,6.75
2022-10-11T03:20:57.664Z,6.60
2022-10-11T03:23:27.412Z,6.65
2022-10-11T03:25:57.224Z,6.62
2022-10-11T03:28:26.730Z,6.69
2022-10-11T03:30:56.635Z,6.72
2022-10-11T03:33:26.459Z,6.67
2022-10-11T03:35:56.185Z,6.54
2022-10-11T03:38:25.717Z,6.55
2022-10-11T03:40:55.512Z,6.50
2022-10-11T03:43:25.615Z,6.60
2022-10-11T03:45:55.367Z,6.64
2022-10-11T03:48:25.110Z,6.71
2022-10-11T03:50:54.852Z,6.58
2022-10-11T03:53:24.674Z,6.34
2022-10-11T03:55:56.175Z,6.37
2022-10-11T03:58:25.784Z,6.44
2022-10-11T04:00:55.892Z,6.54
2022-10-11T04:03:25.642Z,6.43
2022-10-11T04:05:55.361Z,6.43
2022-10-11T04:08:24.793Z,6.41
2022-10-11T04:10:54.673Z,6.55
2022-10-11T04:13:24.442Z,6.49
2022-10-11T04:15:54.193Z,6.31
2022-10-11T04:18:24.167Z,6.10
2022-10-11T04:20:53.909Z,6.19
2022-10-11T04:23:23.669Z,6.25
2022-10-11T04:25:53.387Z,6.18
2022-10-11T04:28:23.353Z,6.26
2022-10-11T04:30:53.568Z,6.21
2022-10-11T04:33:23.389Z,6.29
2022-10-11T04:35:56.681Z,6.23
2022-10-11T04:38:26.434Z,6.24
2022-10-11T04:40:56.454Z,6.34
2022-10-11T04:43:26.295Z,6.19
2022-10-11T04:45:56.027Z,6.17
2022-10-11T04:48:25.766Z,6.08
2022-10-11T04:50:55.587Z,6.14
2022-10-11T04:53:25.667Z,6.19
2022-10-11T04:56:04.806Z,6.36
2022-10-11T04:58:35.939Z,6.33
2022-10-11T05:01:05.447Z,6.15
2022-10-11T05:03:35.182Z,6.17
2022-10-11T05:06:07.040Z,6.24
2022-10-11T05:08:37.507Z,6.25
2022-10-11T05:11:10.612Z,6.03
2022-10-11T05:13:40.981Z,6.04
2022-10-11T05:16:12.027Z,6.16
2022-10-11T05:18:42.519Z,6.09
2022-10-11T05:21:21.252Z,5.97
2022-10-11T05:23:52.039Z,6.06
2022-10-11T05:26:21.850Z,5.95
2022-10-11T05:28:52.547Z,6.08
2022-10-11T05:31:22.788Z,6.05
2022-10-11T05:33:52.815Z,5.99
2022-10-11T05:36:22.289Z,6.00
2022-10-11T05:38:52.084Z,6.02
2022-10-11T05:41:21.839Z,6.05
2022-10-11T05:43:51.584Z,6.07
2022-10-11T05:46:21.375Z,6.02
2022-10-11T05:48:51.416Z,5.92
2022-10-11T05:51:21.174Z,6.03
2022-10-11T05:53:50.972Z,6.08
2022-10-11T05:56:23.820Z,6.04
2022-10-11T05:58:56.564Z,6.01
2022-10-11T06:01:27.843Z,6.00
2022-10-11T06:03:57.577Z,6.00
2022-10-11T06:06:27.875Z,6.08
2022-10-11T06:08:57.778Z,6.00
2022-10-11T06:11:29.032Z,5.97
2022-10-11T06:13:59.292Z,5.92
2022-10-11T06:16:29.112Z,5.98
2022-10-11T06:18:58.959Z,6.08
2022-10-11T06:21:28.692Z,6.08
2022-10-11T06:24:01.675Z,6.10
2022-10-11T06:26:31.613Z,6.25
2022-10-11T06:29:01.720Z,6.18
2022-10-11T06:31:31.921Z,6.20
2022-10-11T06:34:01.832Z,6.37
2022-10-11T06:36:31.562Z,6.33
2022-10-11T06:39:01.668Z,6.31
2022-10-11T06:41:31.938Z,6.51
2022-10-11T06:44:01.795Z,6.69
2022-10-11T06:46:33.446Z,6.70
2022-10-11T06:49:03.359Z,6.90
2022-10-11T06:51:34.815Z,6.94
2022-10-11T06:54:06.377Z,6.86
2022-10-11T06:56:36.590Z,7.08
2022-10-11T06:59:06.631Z,7.13
2022-10-11T07:01:36.459Z,7.14
2022-10-11T07:04:08.449Z,7.29
2022-10-11T07:06:40.451Z,7.45
2022-10-11T07:09:10.686Z,7.80
2022-10-11T07:11:40.183Z,7.86
2022-10-11T07:14:11.222Z,8.31
2022-10-11T07:16:40.988Z,8.31
2022-10-11T07:19:11.590Z,8.46
2022-10-11T07:21:41.648Z,8.61
2022-10-11T07:24:11.110Z,8.75
2022-10-11T07:26:40.965Z,8.90
2022-10-11T07:29:12.114Z,8.93
2022-10-11T07:31:43.522Z,9.06
2022-10-11T07:34:12.994Z,9.23
2022-10-11T07:36:42.690Z,9.40
2022-10-11T07:39:12.422Z,9.55
2022-10-11T07:41:45.889Z,9.63
2022-10-11T07:44:14.418Z,9.53
2022-10-11T07:46:44.139Z,9.57
2022-10-11T07:49:14.214Z,9.68
2022-10-11T07:51:44.064Z,9.67
2022-10-11T07:54:13.832Z,9.77
2022-10-11T07:56:43.600Z,9.93
2022-10-11T07:59:13.622Z,9.74
2022-10-11T08:01:43.393Z,9.85
2022-10-11T08:04:13.319Z,10.14
2022-10-11T08:06:43.136Z,10.17
2022-10-11T08:09:13.186Z,10.21
2022-10-11T08:11:42.944Z,10.28
2022-10-11T08:14:12.545Z,10.42
2022-10-11T08:16:42.341Z,10.54
2022-10-11T08:19:12.395Z,10.59
2022-10-11T08:21:42.138Z,10.83
2022-10-11T08:24:16.504Z,10.83
2022-10-11T08:26:46.561Z,10.96
2022-10-11T08:29:16.607Z,11.07
2022-10-11T08:31:46.352Z,10.90
2022-10-11T08:34:16.475Z,11.29
2022-10-11T08:36:48.138Z,11.19
2022-10-11T08:39:18.002Z,11.31
2022-10-11T08:42:02.389Z,11.54
2022-10-11T08:45:05.345Z,11.47
2022-10-11T08:47:12.769Z,11.71
2022-10-11T08:49:42.979Z,11.79
2022-10-11T08:52:24.159Z,11.73
2022-10-11T08:54:57.333Z,12.13
2022-10-11T08:57:30.159Z,12.15
2022-10-11T09:00:08.943Z,12.46
2022-10-11T09:03:08.068Z,12.68
2022-10-11T09:05:30.883Z,12.65
2022-10-11T09:08:08.918Z,13.06
2022-10-11T09:10:47.616Z,13.21
2022-10-11T09:13:25.071Z,13.71
2022-10-11T09:15:57.921Z,13.91
2022-10-11T09:22:02.095Z,14.16
2022-10-11T09:24:52.983Z,14.34
2022-10-11T09:27:43.648Z,14.41
2022-10-11T09:30:14.717Z,14.27
2022-10-11T09:32:50.444Z,14.78
2022-10-11T09:35:22.228Z,14.88
2022-10-11T09:37:55.051Z,15.22
2022-10-11T09:40:36.404Z,15.64
2022-10-11T09:43:06.225Z,15.24
2022-10-11T09:45:36.542Z,15.24
2022-10-11T09:48:10.425Z,15.48
2022-10-11T09:50:41.004Z,15.44
2022-10-11T09:53:10.970Z,15.56
2022-10-11T09:55:56.093Z,15.76
2022-10-11T09:58:28.756Z,15.91
2022-10-11T10:01:08.526Z,15.94
2022-10-11T10:03:40.555Z,16.27
2022-10-11T10:06:20.709Z,16.28
2022-10-11T10:08:50.594Z,16.09
2022-10-11T10:11:20.939Z,16.31
2022-10-11T10:13:53.430Z,16.57
2022-10-11T10:16:34.634Z,16.57
2022-10-11T10:19:07.487Z,16.80
2022-10-11T10:21:40.308Z,16.85
2022-10-11T10:24:29.091Z,16.85
2022-10-11T10:27:10.487Z,16.52
2022-10-11T10:29:41.082Z,16.98
2022-10-11T10:32:17.019Z,17.27
2022-10-11T10:34:55.684Z,17.64
2022-10-11T10:37:50.420Z,17.51
2022-10-11T10:40:23.244Z,17.29
2022-10-11T10:42:53.425Z,17.74
2022-10-11T10:45:26.210Z,17.52
2022-10-11T10:48:13.883Z,17.86
2022-10-11T10:50:52.336Z,17.73
2022-10-11T10:53:28.085Z,17.67
2022-10-11T10:56:04.268Z,17.32
2022-10-11T10:58:55.007Z,17.50
2022-10-11T11:01:29.941Z,17.72
2022-10-11T11:04:08.424Z,17.95
2022-10-11T11:06:41.206Z,18.07
2022-10-11T11:09:16.510Z,17.69
2022-10-11T11:12:24.970Z,17.69
2022-10-11T11:15:12.430Z,17.49
2022-10-11T11:18:09.097Z,17.99
2022-10-11T11:20:47.164Z,18.24
2022-10-11T11:23:24.301Z,17.69
2022-10-11T11:25:59.926Z,18.03
2022-10-11T11:28:41.610Z,17.96
2022-10-11T11:31:37.997Z,18.14
2022-10-11T11:34:27.247Z,18.31
2022-10-11T11:37:00.131Z,18.03
2022-10-11T11:39:38.841Z,18.30
2022-10-11T11:42:14.090Z,18.20
2022-10-11T11:44:49.749Z,18.61
2022-10-11T11:47:40.331Z,18.58
2022-10-11T11:50:21.647Z,18.80
2022-10-11T11:53:00.547Z,18.83
2022-10-11T11:55:38.931Z,18.76
2022-10-11T11:58:33.572Z,18.76
2022-10-11T12:01:21.146Z,18.92
2022-10-11T12:03:54.189Z,18.92
2022-10-11T12:06:32.964Z,18.77
2022-10-11T12:09:20.317Z,19.32
2022-10-11T12:11:58.714Z,18.93
2022-10-11T12:14:41.763Z,18.93
2022-10-11T12:17:16.991Z,18.52
2022-10-11T12:20:04.541Z,18.35
2022-10-11T12:22:42.861Z,18.43
2022-10-11T12:25:18.872Z,18.73
2022-10-11T12:27:53.796Z,19.09
2022-10-11T12:30:50.279Z,18.91
2022-10-11T12:33:26.175Z,19.33
2022-10-11T12:36:01.423Z,19.60
2022-10-11T12:38:33.858Z,19.45
2022-10-11T12:41:16.950Z,19.68
2022-10-11T12:43:54.769Z,19.59
2022-10-11T12:46:33.428Z,19.49
2022-10-11T12:49:15.044Z,18.58
2022-10-11T12:51:50.569Z,18.09
2022-10-11T12:54:41.003Z,17.84
2022-10-11T12:57:25.621Z,18.02
2022-10-11T12:59:55.436Z,18.17
2022-10-11T13:02:39.687Z,18.64
2022-10-11T13:05:24.419Z,18.66
2022-10-11T13:07:57.465Z,19.58
2022-10-11T13:10:48.178Z,19.43
2022-10-11T13:13:23.836Z,19.43
2022-10-11T13:15:56.703Z,19.48
2022-10-11T13:18:27.462Z,19.61
2022-10-11T13:20:57.187Z,19.19
2022-10-11T13:23:38.963Z,18.78
2022-10-11T13:26:10.937Z,19.05
2022-10-11T13:28:40.959Z,19.05
2022-10-11T13:31:10.777Z,19.09
2022-10-11T13:33:43.568Z,19.08
2022-10-11T13:36:17.646Z,18.88
2022-10-11T13:38:55.906Z,18.86
2022-10-11T13:41:28.707Z,18.81
2022-10-11T13:44:00.350Z,18.67
2022-10-11T13:46:32.210Z,18.79
2022-10-11T13:49:07.873Z,18.44
2022-10-11T13:51:38.662Z,19.03
2022-10-11T13:54:13.734Z,19.28
2022-10-11T13:56:49.037Z,19.42
2022-10-11T13:59:24.415Z,19.49
2022-10-11T14:02:00.180Z,19.55
2022-10-11T14:04:31.273Z,19.43
2022-10-11T14:07:04.399Z,19.17
2022-10-11T14:09:37.433Z,19.89
2022-10-11T14:12:31.778Z,19.91
2022-10-11T14:15:03.922Z,20.35
2022-10-11T14:17:43.052Z,19.81
2022-10-11T14:20:28.367Z,19.72
2022-10-11T14:22:56.112Z,19.78
2022-10-11T14:25:25.787Z,19.92
2022-10-11T14:27:55.298Z,19.59
2022-10-11T14:30:28.006Z,19.53
2022-10-11T14:33:00.794Z,19.97
2022-10-11T14:35:33.063Z,20.35
2022-10-11T14:38:02.815Z,20.74
2022-10-11T14:40:32.916Z,20.53
2022-10-11T14:43:02.669Z,19.94
2022-10-11T14:45:32.381Z,19.53
2022-10-11T14:48:02.124Z,19.81
2022-10-11T14:50:34.894Z,19.51
2022-10-11T14:53:05.752Z,19.51
2022-10-11T14:55:38.185Z,19.66
2022-10-11T14:58:12.385Z,19.34
2022-10-11T15:00:42.250Z,19.53
2022-10-11T15:03:12.465Z,19.28
2022-10-11T15:05:42.198Z,19.65
2022-10-11T15:08:14.984Z,19.28
2022-10-11T15:10:45.010Z,19.15
2022-10-11T15:13:14.804Z,19.32
2022-10-11T15:15:45.275Z,19.45
2022-10-11T15:18:18.526Z,19.02
2022-10-11T15:20:48.358Z,19.36
2022-10-11T15:23:18.073Z,18.95
2022-10-11T15:25:48.097Z,18.94
2022-10-11T15:28:34.191Z,18.92
2022-10-11T15:31:04.022Z,18.81
2022-10-11T15:33:33.764Z,18.57
2022-10-11T15:36:03.990Z,18.78
2022-10-11T15:38:34.269Z,18.84
2022-10-11T15:41:04.324Z,18.64
2022-10-11T15:43:34.253Z,18.62
2022-10-11T15:46:07.048Z,18.34
2022-10-11T15:48:37.875Z,18.24
2022-10-11T15:51:07.689Z,18.59
2022-10-11T15:53:37.129Z,18.59
2022-10-11T15:56:10.391Z,18.69
2022-10-11T15:58:41.768Z,19.44
2022-10-11T16:01:17.374Z,19.38
2022-10-11T16:03:48.866Z,19.02
2022-10-11T16:06:19.782Z,18.96
2022-10-11T16:08:49.399Z,19.20
2022-10-11T16:11:19.127Z,18.77
2022-10-11T16:13:49.997Z,18.30
2022-10-11T16:16:19.743Z,17.53
2022-10-11T16:18:51.413Z,17.53
2022-10-11T16:21:22.784Z,17.51
2022-10-11T16:23:52.892Z,17.20
2022-10-11T16:26:22.695Z,17.20
2022-10-11T16:28:52.773Z,16.99
2022-10-11T16:31:22.917Z,16.90
2022-10-11T16:33:53.808Z,16.69
2022-10-11T16:36:34.883Z,16.54
2022-10-11T16:39:07.672Z,16.22
2022-10-11T16:41:37.594Z,16.23
2022-10-11T16:44:18.330Z,16.03
2022-10-11T16:46:49.487Z,15.96
2022-10-11T16:49:22.433Z,15.74
2022-10-11T16:51:54.327Z,15.56
2022-10-11T16:54:24.390Z,15.34
2022-10-11T16:56:54.286Z,15.22
2022-10-11T16:59:24.007Z,15.14
2022-10-11T17:01:53.813Z,15.05
2022-10-11T17:04:23.702Z,14.92
2022-10-11T17:06:55.027Z,14.68
2022-10-11T17:09:24.829Z,14.54
2022-10-11T17:11:54.592Z,14.37
2022-10-11T17:14:24.088Z,14.31
2022-10-11T17:16:53.847Z,14.29
2022-10-11T17:19:23.340Z,14.25
2022-10-11T17:21:53.071Z,14.10
2022-10-11T17:24:22.779Z,14.10
2022-10-11T17:26:52.701Z,13.78
2022-10-11T17:29:23.948Z,13.74
2022-10-11T17:31:55.251Z,13.39
2022-10-11T17:34:24.927Z,13.53
2022-10-11T17:36:54.747Z,13.39
2022-10-11T17:39:25.744Z,13.40
2022-10-11T17:41:55.626Z,13.52
2022-10-11T17:44:25.382Z,13.46
2022-10-11T17:46:55.152Z,13.24
2022-10-11T17:49:24.906Z,13.34
2022-10-11T17:51:55.063Z,12.91
2022-10-11T17:54:26.369Z,12.71
2022-10-11T17:56:56.140Z,12.74
2022-10-11T17:59:30.490Z,12.91
2022-10-11T18:02:00.242Z,12.77
2022-10-11T18:04:30.248Z,12.60
2022-10-11T18:06:59.996Z,12.69
2022-10-11T18:09:29.790Z,12.69
2022-10-11T18:11:59.775Z,12.79
2022-10-11T18:14:29.535Z,12.53
2022-10-11T18:16:59.349Z,12.43
2022-10-11T18:19:29.532Z,12.55
2022-10-11T18:22:02.055Z,12.57
2022-10-11T18:24:30.712Z,12.31
2022-10-11T18:27:00.753Z,12.33
2022-10-11T18:29:30.817Z,12.49
2022-10-11T18:32:00.561Z,12.25
2022-10-11T18:34:30.630Z,12.25
2022-10-11T18:37:00.712Z,12.26
2022-10-11T18:39:34.249Z,12.19
2022-10-11T18:42:06.661Z,12.06
2022-10-11T18:44:36.105Z,12.06
2022-10-11T18:47:05.902Z,12.27
2022-10-11T18:49:35.750Z,12.04
2022-10-11T18:52:07.941Z,11.99
2022-10-11T18:54:37.875Z,11.88
2022-10-11T18:57:07.697Z,11.75
2022-10-11T18:59:37.720Z,11.64
2022-10-11T19:02:10.309Z,11.57
2022-10-11T19:04:40.398Z,11.69
2022-10-11T19:07:10.325Z,11.63
2022-10-11T19:09:40.072Z,11.54
2022-10-11T19:12:11.368Z,11.51
2022-10-11T19:14:41.861Z,11.47
2022-10-11T19:17:12.416Z,11.43
2022-10-11T19:19:42.158Z,11.55
2022-10-11T19:22:11.944Z,11.35
2022-10-11T19:24:43.663Z,11.26
2022-10-11T19:27:13.497Z,11.30
2022-10-11T19:29:43.261Z,11.42
2022-10-11T19:32:12.705Z,11.20
2022-10-11T19:34:42.507Z,11.04
2022-10-11T19:37:13.463Z,11.13
2022-10-11T19:39:43.459Z,11.04
2022-10-11T19:42:13.238Z,11.23
2022-10-11T19:44:43.021Z,11.23
2022-10-11T19:47:12.849Z,11.17
2022-10-11T19:49:44.131Z,10.99
2022-10-11T19:52:13.944Z,10.99
2022-10-11T19:54:43.893Z,10.71
2022-10-11T19:57:16.660Z,10.70
2022-10-11T19:59:46.489Z,10.70
2022-10-11T20:02:16.601Z,10.55
2022-10-11T20:04:52.481Z,10.64
2022-10-11T20:07:19.506Z,10.56
2022-10-11T20:09:49.285Z,10.53
2022-10-11T20:12:19.307Z,10.53
2022-10-11T20:14:49.054Z,10.59
2022-10-11T20:17:19.250Z,10.53
2022-10-11T20:19:49.307Z,10.60
2022-10-11T20:22:19.029Z,10.48
2022-10-11T20:24:48.779Z,10.25
2022-10-11T20:27:18.557Z,10.17
2022-10-11T20:29:48.759Z,10.05
2022-10-11T20:32:18.523Z,10.10
2022-10-11T20:34:48.271Z,10.25
2022-10-11T20:37:18.042Z,10.10
2022-10-11T20:39:47.762Z,10.00
2022-10-11T20:42:17.314Z,9.94
2022-10-11T20:44:48.711Z,10.00
2022-10-11T20:47:18.830Z,10.10
2022-10-11T20:49:48.615Z,10.13
2022-10-11T20:52:18.204Z,10.05
2022-10-11T20:54:47.971Z,10.05
2022-10-11T20:57:17.704Z,9.95
2022-10-11T20:59:49.219Z,9.95
2022-10-11T21:02:19.246Z,9.98
2022-10-11T21:04:48.974Z,9.78
2022-10-11T21:07:18.719Z,9.68
2022-10-11T21:09:48.746Z,9.89
2022-10-11T21:12:18.477Z,9.63
2022-10-11T21:14:48.505Z,9.64
2022-10-11T21:17:18.598Z,9.55
2022-10-11T21:19:48.918Z,9.62
2022-10-11T21:22:18.683Z,9.66
2022-10-11T21:24:48.443Z,9.56
2022-10-11T21:27:18.184Z,9.43
2022-10-11T21:29:47.923Z,9.31
2022-10-11T21:32:17.368Z,9.34
2022-10-11T21:34:47.205Z,9.52
2022-10-11T21:37:17.305Z,9.39
2022-10-11T21:39:47.041Z,9.39
2022-10-11T21:42:16.477Z,9.16
2022-10-11T21:44:46.545Z,9.16
2022-10-11T21:47:17.430Z,9.13
2022-10-11T21:49:47.195Z,9.25
2022-10-11T21:52:17.100Z,9.14
2022-10-11T21:54:47.270Z,9.17
2022-10-11T21:57:17.018Z,9.12
2022-10-11T21:59:46.746Z,9.13
2022-10-11T22:02:16.392Z,9.07
2022-10-11T22:04:46.215Z,9.07
2022-10-11T22:07:15.947Z,9.02
2022-10-11T22:09:46.111Z,9.02
2022-10-11T22:12:15.831Z,9.16
2022-10-11T22:14:45.566Z,9.02
2022-10-11T22:17:15.598Z,9.06
2022-10-11T22:19:45.094Z,8.81
2022-10-11T22:22:15.234Z,8.87
2022-10-11T22:24:44.995Z,8.93
2022-10-11T22:27:14.829Z,8.74
2022-10-11T22:29:44.279Z,8.87
2022-10-11T22:32:14.028Z,8.62
2022-10-11T22:34:44.119Z,8.69
2022-10-11T22:37:13.857Z,8.66
2022-10-11T22:39:43.615Z,8.56
2022-10-11T22:42:13.349Z,8.60
2022-10-11T22:44:43.085Z,8.49
2022-10-11T22:47:12.826Z,8.60
2022-10-11T22:49:42.554Z,8.51
2022-10-11T22:52:12.297Z,8.56
2022-10-11T22:54:42.131Z,8.56
2022-10-11T22:57:11.917Z,8.57
2022-10-11T22:59:41.414Z,8.45
2022-10-11T23:02:11.631Z,8.45
2022-10-11T23:04:41.676Z,8.18
2022-10-11T23:07:11.705Z,8.40
2022-10-11T23:09:41.444Z,8.40
2022-10-11T23:12:11.998Z,8.46
2022-10-11T23:14:41.727Z,8.32
2022-10-11T23:17:11.495Z,8.40
2022-10-11T23:19:41.269Z,8.37
2022-10-11T23:22:11.615Z,8.46
2022-10-11T23:24:41.653Z,8.46
2022-10-11T23:27:11.469Z,8.49
2022-10-11T23:29:41.212Z,8.38
2022-10-11T23:32:12.515Z,8.31
2022-10-11T23:34:42.239Z,8.40
2022-10-11T23:37:11.981Z,8.43
2022-10-11T23:39:42.264Z,8.38
2022-10-11T23:42:12.067Z,8.31
2022-10-11T23:44:41.869Z,8.20
2022-10-11T23:47:11.669Z,8.31
2022-10-11T23:49:41.440Z,8.26
2022-10-11T23:52:11.954Z,8.20
2022-10-11T23:54:41.689Z,8.09
2022-10-11T23:57:11.156Z,8.16
2022-10-11T23:59:40.590Z,8.32
